Time;durP1;ratioP1;P1;durP2;ratioP2;P2;SDS_P1;SDS_P2;PMS_P1;PMS_P2;Temp;Humidity;BMP_temperature;BMP_pressure;BME280_temperature;BME280_humidity;BME280_pressure;Samples;Min_cycle;Max_cycle;Signal;HPM_P1;HPM_P2
2023/05/07 00:02:19;;;;;;;4.20;2.33;;;;;;;13.71;70.04;95519.75;5776831;24;20205;-86
2023/05/07 00:05:09;;;;;;;4.50;2.60;;;;;;;13.74;70.12;95524.59;5843707;24;20173;-85
2023/05/07 00:07:52;;;;;;;2.97;2.07;;;;;;;13.75;69.65;95513.19;5896752;24;20190;-85
2023/05/07 00:10:26;;;;;;;5.27;2.97;;;;;;;13.70;70.08;95515.50;5873724;24;20197;-85
2023/05/07 00:13:29;;;;;;;3.23;2.37;;;;;;;13.68;70.03;95508.81;5872705;24;20177;-86
2023/05/07 00:16:46;;;;;;;3.47;2.47;;;;;;;13.74;70.00;95502.91;5855478;24;20899;-84
2023/05/07 00:19:44;;;;;;;4.10;2.40;;;;;;;13.67;70.13;95502.78;5898479;24;20200;-84
2023/05/07 00:22:34;;;;;;;3.83;2.40;;;;;;;13.68;70.07;95495.75;5899117;24;20214;-84
2023/05/07 00:25:28;;;;;;;2.77;2.37;;;;;;;13.67;70.26;95491.53;5843581;24;20167;-85
2023/05/07 00:28:03;;;;;;;3.93;2.33;;;;;;;13.71;70.42;95491.03;5960456;23;20575;-87
2023/05/07 00:33:46;;;;;;;4.87;2.50;;;;;;;13.66;70.78;95495.94;6038740;23;20679;-85
2023/05/07 00:36:39;;;;;;;2.20;2.03;;;;;;;13.68;70.67;95488.75;6036818;23;20169;-83
2023/05/07 00:39:29;;;;;;;3.63;2.80;;;;;;;13.65;70.73;95488.28;6037995;23;20591;-85
2023/05/07 00:42:29;;;;;;;3.70;2.40;;;;;;;13.67;70.81;95486.31;6090090;23;20166;-84
2023/05/07 00:44:59;;;;;;;3.30;2.80;;;;;;;13.70;70.75;95486.00;6035072;23;20161;-84
2023/05/07 00:48:41;;;;;;;2.83;2.53;;;;;;;13.66;70.80;95480.28;6014412;23;20166;-86
2023/05/07 00:51:29;;;;;;;3.20;2.43;;;;;;;13.62;70.93;95478.19;6060316;23;20162;-85
2023/05/07 00:54:40;;;;;;;4.67;2.33;;;;;;;13.55;71.08;95484.06;6089826;23;20165;-85
2023/05/07 00:57:29;;;;;;;3.17;2.40;;;;;;;13.55;71.15;95489.28;6089412;23;20165;-84
2023/05/07 01:00:08;;;;;;;2.27;2.03;;;;;;;13.57;71.51;95483.88;6107614;23;20202;-85
2023/05/07 01:02:48;;;;;;;3.03;2.57;;;;;;;13.53;71.54;95480.81;6105697;23;20163;-86
2023/05/07 01:06:04;;;;;;;;;;;;;;;;;;;;;
2023/05/07 01:08:50;;;;;;;5.70;2.70;;;;;;;13.48;71.90;95484.88;6104204;23;20317;-86
2023/05/07 01:11:47;;;;;;;2.83;2.63;;;;;;;13.49;71.72;95483.91;6085689;23;20222;-83
2023/05/07 01:14:50;;;;;;;3.17;2.87;;;;;;;13.47;71.89;95485.88;6103949;23;20160;-85
2023/05/07 01:17:39;;;;;;;4.07;2.80;;;;;;;13.44;72.15;95483.59;6181001;23;20161;-83
2023/05/07 01:20:18;;;;;;;8.47;2.90;;;;;;;13.41;72.37;95484.72;6168550;23;20274;-83
2023/05/07 01:22:54;;;;;;;2.97;2.43;;;;;;;13.46;72.26;95482.44;6134935;23;20236;-84
2023/05/07 01:26:21;;;;;;;2.77;2.53;;;;;;;13.56;72.01;95490.09;6137378;23;20150;-85
2023/05/07 01:29:01;;;;;;;5.83;2.67;;;;;;;13.55;71.90;95478.03;6161748;23;20182;-84
2023/05/07 01:32:06;;;;;;;;;;;;;;;;;;;;;
2023/05/07 01:35:09;;;;;;;4.07;2.47;;;;;;;13.55;71.95;95484.06;6118290;23;20525;-85
2023/05/07 01:38:02;;;;;;;3.63;2.53;;;;;;;13.52;72.08;95486.19;6163196;23;20569;-84
2023/05/07 01:44:15;;;;;;;5.07;2.87;;;;;;;13.50;72.34;95480.31;6164126;23;20220;-84
2023/05/07 01:53:58;;;;;;;3.10;2.80;;;;;;;13.52;72.58;95488.81;6166974;23;20163;-85
2023/05/07 01:57:11;;;;;;;2.70;2.50;;;;;;;13.58;72.31;95478.50;6153283;23;20198;-85
2023/05/07 02:00:05;;;;;;;3.50;2.77;;;;;;;13.57;72.08;95474.25;6185265;23;20197;-83
2023/05/07 02:03:35;;;;;;;;;;;;;;;;;;;;;
2023/05/07 02:06:21;;;;;;;3.80;2.70;;;;;;;13.58;71.93;95475.06;6204063;23;20248;-85
2023/05/07 02:09:27;;;;;;;4.43;3.50;;;;;;;13.58;72.02;95477.69;6166602;23;20228;-85
2023/05/07 02:12:42;;;;;;;;;;;;;;;;;;;;;
2023/05/07 02:15:37;;;;;;;;;;;;;;;;;;;;;
2023/05/07 02:18:28;;;;;;;4.70;2.40;;;;;;;13.51;72.49;95479.31;6213405;23;20189;-85
2023/05/07 02:21:16;;;;;;;3.63;2.50;;;;;;;13.43;72.41;95479.34;6214117;23;20185;-85
2023/05/07 02:24:07;;;;;;;3.93;2.70;;;;;;;13.52;72.64;95476.56;6195862;23;20501;-85
2023/05/07 02:26:35;;;;;;;4.27;3.07;;;;;;;13.40;72.67;95480.50;6196976;23;20149;-84
2023/05/07 02:32:14;;;;;;;3.40;2.63;;;;;;;13.33;73.29;95482.94;6217608;23;20183;-85
2023/05/07 02:34:56;;;;;;;3.27;2.93;;;;;;;13.36;73.25;95486.22;6099898;23;20238;-86
2023/05/07 02:37:32;;;;;;;5.87;3.00;;;;;;;13.31;73.26;95482.31;6075249;23;20164;-86
2023/05/07 02:40:01;;;;;;;3.97;3.00;;;;;;;13.34;73.30;95478.56;6077650;23;20195;-86
2023/05/07 02:42:37;;;;;;;3.77;3.10;;;;;;;13.30;73.39;95475.47;6101443;23;20160;-85
2023/05/07 02:45:21;;;;;;;;;;;;;;;;;;;;;
2023/05/07 02:48:06;;;;;;;2.90;2.70;;;;;;;13.32;73.35;95476.09;6105128;23;20333;-84
2023/05/07 02:51:07;;;;;;;3.57;3.23;;;;;;;13.25;73.55;95477.78;6101052;23;20203;-85
2023/05/07 02:54:06;;;;;;;3.43;3.13;;;;;;;13.25;73.89;95480.38;6100689;23;20621;-86
2023/05/07 02:57:02;;;;;;;5.10;3.17;;;;;;;13.20;73.71;95472.22;6095855;23;20175;-86
2023/05/07 03:03:03;;;;;;;4.87;3.27;;;;;;;13.19;74.11;95467.16;6038816;23;20535;-86
2023/05/07 03:06:04;;;;;;;;;;;;;;;;;;;;;
2023/05/07 03:09:17;;;;;;;3.37;2.97;;;;;;;13.09;74.47;95462.13;6016832;23;20324;-84
2023/05/07 03:12:08;;;;;;;4.77;3.07;;;;;;;13.07;74.49;95458.03;6064231;23;20187;-85
2023/05/07 03:14:48;;;;;;;3.17;2.87;;;;;;;13.01;74.74;95456.91;6050185;23;20160;-86
2023/05/07 03:17:32;;;;;;;4.70;3.00;;;;;;;13.03;74.82;95462.78;6095885;23;20183;-85
2023/05/07 03:20:32;;;;;;;3.87;2.90;;;;;;;13.07;74.75;95453.63;6050404;23;20449;-84
2023/05/07 03:26:58;;;;;;;3.53;2.93;;;;;;;13.01;74.77;95444.69;6077844;23;20216;-84
2023/05/07 03:29:55;;;;;;;5.90;2.97;;;;;;;12.97;75.30;95453.00;6071664;23;20208;-85
2023/05/07 03:32:32;;;;;;;3.03;2.73;;;;;;;12.94;75.46;95453.31;6095553;23;20161;-85
2023/05/07 03:35:28;;;;;;;3.63;2.93;;;;;;;12.92;75.50;95460.50;6095992;23;20388;-86
2023/05/07 03:38:32;;;;;;;3.63;3.33;;;;;;;12.92;75.69;95455.28;6064166;23;20161;-85
2023/05/07 03:41:20;;;;;;;3.17;2.80;;;;;;;12.96;75.50;95449.56;6158019;23;20173;-84
2023/05/07 03:44:06;;;;;;;6.07;3.27;;;;;;;13.02;75.08;95451.53;6185103;23;20161;-86
2023/05/07 03:50:06;;;;;;;4.97;2.97;;;;;;;13.04;74.74;95443.53;6107738;23;20183;-83
2023/05/07 03:58:48;;;;;;;2.93;2.70;;;;;;;13.15;74.15;95456.22;6100555;23;20590;-86
2023/05/07 04:01:24;;;;;;;3.53;3.13;;;;;;;13.16;73.88;95455.25;6102085;23;20645;-86
2023/05/07 04:03:59;;;;;;;3.27;2.80;;;;;;;13.18;73.75;95458.53;6101493;23;20648;-85
2023/05/07 04:06:35;;;;;;;3.13;2.80;;;;;;;13.22;73.62;95470.25;6100284;23;20144;-85
2023/05/07 04:09:30;;;;;;;3.40;3.10;;;;;;;13.27;73.45;95465.38;6097428;23;20230;-86
2023/05/07 04:12:01;;;;;;;4.57;3.07;;;;;;;13.33;72.97;95463.88;6102777;23;20160;-84
2023/05/07 04:18:03;;;;;;;3.17;2.87;;;;;;;13.50;72.20;95459.44;6095845;23;20202;-86
2023/05/07 04:20:50;;;;;;;3.50;2.97;;;;;;;13.52;71.89;95458.31;6163606;23;20186;-84
2023/05/07 04:26:52;;;;;;;6.63;3.20;;;;;;;13.71;71.44;95471.94;6215485;23;20153;-85
2023/05/07 04:29:33;;;;;;;2.83;2.53;;;;;;;13.79;70.77;95470.13;6189593;23;20190;-84
2023/05/07 04:32:28;;;;;;;3.27;2.80;;;;;;;13.93;70.02;95475.59;6167013;23;20189;-85
2023/05/07 04:35:02;;;;;;;3.03;2.83;;;;;;;14.00;69.35;95471.34;6192916;23;20195;-85
2023/05/07 04:40:33;;;;;;;3.57;2.43;;;;;;;14.23;68.79;95469.59;6195248;23;20527;-85
2023/05/07 04:43:09;;;;;;;4.33;2.80;;;;;;;14.40;68.30;95472.91;6189611;23;20166;-85
2023/05/07 04:45:45;;;;;;;2.50;2.30;;;;;;;14.62;67.28;95473.94;6214505;23;20157;-85
2023/05/07 04:48:29;;;;;;;;;;;;;;;;;;;;;
2023/05/07 04:51:07;;;;;;;2.93;2.73;;;;;;;14.92;66.49;95470.44;6194241;23;20552;-84
2023/05/07 04:53:41;;;;;;;3.17;2.47;;;;;;;15.09;65.46;95478.16;6190629;23;20158;-86
2023/05/07 04:56:32;;;;;;;2.73;2.50;;;;;;;15.11;65.56;95481.41;6190702;23;20242;-85
2023/05/07 04:59:08;;;;;;;3.40;2.63;;;;;;;15.14;64.88;95481.06;6175888;23;20194;-86
2023/05/07 05:01:40;;;;;;;2.87;2.30;;;;;;;15.16;65.07;95479.88;6191101;23;20157;-85
2023/05/07 05:04:24;;;;;;;3.97;2.73;;;;;;;15.23;65.02;95474.75;6185239;23;20162;-84
2023/05/07 05:07:05;;;;;;;4.20;2.30;;;;;;;15.30;64.94;95492.19;6191544;23;20213;-86
2023/05/07 05:10:12;;;;;;;2.60;2.37;;;;;;;15.47;64.00;95484.19;6192618;23;20289;-86
2023/05/07 05:12:40;;;;;;;4.72;2.42;;;;;;;15.56;64.19;95481.31;6124491;23;20183;-86
2023/05/07 05:15:07;;;;;;;2.55;2.35;;;;;;;15.93;62.71;95491.88;6102519;23;20175;-84
2023/05/07 05:17:34;;;;;;;2.50;2.30;;;;;;;17.20;59.59;95488.59;6101301;23;20594;-86
2023/05/07 05:19:59;;;;;;;2.85;2.13;;;;;;;18.43;54.73;95496.81;6102941;23;20753;-84
2023/05/07 05:22:25;;;;;;;2.40;2.20;;;;;;;19.70;51.46;95502.88;6102294;23;20168;-84
2023/05/07 05:24:50;;;;;;;4.53;1.98;;;;;;;20.09;47.88;95495.88;6109522;23;20160;-84
2023/05/07 05:27:16;;;;;;;2.20;2.00;;;;;;;19.97;48.60;95508.09;6134348;23;20167;-85
2023/05/07 05:29:41;;;;;;;1.88;1.77;;;;;;;20.28;48.35;95507.38;6087563;23;20180;-85
2023/05/07 05:32:07;;;;;;;2.20;2.00;;;;;;;19.93;48.08;95515.59;6134773;23;20232;-84
2023/05/07 05:34:33;;;;;;;2.97;2.00;;;;;;;19.12;49.84;95513.19;6110330;23;20307;-85
2023/05/07 05:36:59;;;;;;;2.30;2.08;;;;;;;19.34;49.14;95505.88;6107493;23;20175;-85
2023/05/07 05:39:24;;;;;;;2.28;2.08;;;;;;;18.71;50.93;95499.34;6107795;23;20191;-84
2023/05/07 05:41:49;;;;;;;4.10;2.13;;;;;;;18.67;51.29;95501.56;6084286;23;20187;-85
2023/05/07 05:44:15;;;;;;;4.35;1.80;;;;;;;18.67;51.97;95498.94;6133050;23;20394;-84
2023/05/07 05:46:40;;;;;;;3.88;1.88;;;;;;;19.27;50.08;95514.81;6081477;23;20829;-86
2023/05/07 05:49:09;;;;;;;4.47;2.00;;;;;;;19.50;49.56;95518.66;6162471;23;20181;-85
2023/05/07 05:51:34;;;;;;;2.50;2.30;;;;;;;19.51;49.28;95516.81;6145641;23;20788;-83
2023/05/07 05:53:59;;;;;;;4.57;1.90;;;;;;;19.27;49.93;95520.91;6167699;23;20147;-85
2023/05/07 05:56:25;;;;;;;2.20;2.00;;;;;;;19.83;49.35;95515.19;6199281;23;20143;-84
2023/05/07 05:58:54;;;;;;;2.35;1.95;;;;;;;20.74;47.59;95515.09;6188187;23;20186;-83
2023/05/07 06:01:19;;;;;;;2.42;2.22;;;;;;;22.79;41.53;95523.00;6191115;23;20162;-84
2023/05/07 06:03:45;;;;;;;2.17;1.88;;;;;;;24.58;37.57;95520.88;6161836;23;20151;-85
2023/05/07 06:06:14;;;;;;;1.88;1.70;;;;;;;26.09;34.75;95531.72;6190633;23;20154;-84
2023/05/07 06:08:39;;;;;;;3.25;2.13;;;;;;;25.83;35.55;95535.06;6145121;23;20161;-85
2023/05/07 06:11:05;;;;;;;2.00;1.60;;;;;;;26.74;34.30;95530.97;6194189;23;20154;-84
2023/05/07 06:13:32;;;;;;;2.25;1.50;;;;;;;26.28;33.78;95532.25;6195072;23;20167;-84
2023/05/07 06:15:58;;;;;;;1.90;1.80;;;;;;;26.93;32.98;95528.75;6143199;23;20549;-84
2023/05/07 06:18:26;;;;;;;2.15;1.95;;;;;;;26.64;33.19;95535.38;6185419;23;20182;-84
2023/05/07 06:20:53;;;;;;;1.98;1.85;;;;;;;27.40;32.10;95527.41;6188845;23;20170;-85
2023/05/07 06:23:18;;;;;;;3.08;1.70;;;;;;;27.56;31.83;95537.13;6189778;23;20159;-83
2023/05/07 06:25:50;;;;;;;3.15;2.20;;;;;;;29.00;29.67;95535.06;6183379;23;20647;-83
2023/05/07 06:28:15;;;;;;;4.32;1.88;;;;;;;28.87;29.59;95528.28;6157224;23;20186;-82
2023/05/07 06:30:41;;;;;;;3.30;2.10;;;;;;;28.65;30.25;95538.38;6182503;23;20605;-82
2023/05/07 06:33:06;;;;;;;3.60;2.35;;;;;;;29.02;30.32;95543.59;6157505;23;20154;-83
2023/05/07 06:35:31;;;;;;;4.32;1.80;;;;;;;29.00;29.60;95541.19;6184307;23;20177;-82
2023/05/07 06:38:04;;;;;;;2.85;1.95;;;;;;;29.00;30.12;95546.56;6208463;23;20155;-83
2023/05/07 06:40:29;;;;;;;2.97;1.95;;;;;;;30.59;27.61;95545.47;6182608;23;20178;-84
2023/05/07 06:42:57;;;;;;;1.85;1.67;;;;;;;30.37;27.51;95553.81;6158846;23;20161;-85
2023/05/07 06:45:28;;;;;;;4.97;1.98;;;;;;;29.63;28.90;95553.63;6156240;23;20158;-84
2023/05/07 06:48:11;;;;;;;2.08;1.98;;;;;;;28.52;31.04;95541.53;6206685;23;20241;-84
2023/05/07 06:51:10;;;;;;;;;;;;;;;;;;;;;
2023/05/07 06:57:26;;;;;;;2.53;2.20;;;;;;;29.56;29.92;95543.19;6101022;23;20167;-83
2023/05/07 07:00:53;;;;;;;;;;;;;;;;;;;;;
2023/05/07 07:03:56;;;;;;;2.50;2.30;;;;;;;27.57;33.59;95534.22;6043764;23;20252;-83
2023/05/07 07:07:16;;;;;;;2.15;1.98;;;;;;;26.82;34.64;95527.84;6037442;23;20165;-81
2023/05/07 07:10:09;;;;;;;2.05;1.85;;;;;;;27.39;33.92;95534.59;6005125;23;20660;-82
2023/05/07 07:12:59;;;;;;;2.85;2.42;;;;;;;25.87;35.25;95544.97;6062452;23;20169;-81
2023/05/07 07:15:54;;;;;;;2.80;2.60;;;;;;;24.49;38.33;95531.06;6058058;23;20165;-82
2023/05/07 07:18:58;;;;;;;3.67;3.08;;;;;;;23.62;41.18;95538.94;6034700;23;20194;-83
2023/05/07 07:21:47;;;;;;;3.47;2.10;;;;;;;22.36;43.60;95542.47;6013615;23;20146;-82
2023/05/07 08:23:21;;;;;;;2.50;2.30;;;;;;;23.13;46.78;95558.59;6177293;23;20267;-86
2023/05/07 08:34:27;;;;;;;2.83;2.58;;;;;;;22.26;46.48;95561.50;6160520;23;20516;-83
2023/05/07 08:38:25;;;;;;;;;;;;;;;;;;;;;
2023/05/07 08:44:24;;;;;;;5.50;2.70;;;;;;;23.58;43.23;95558.13;6120344;23;20234;-82
2023/05/07 08:46:53;;;;;;;3.25;2.17;;;;;;;23.45;44.56;95554.66;6099650;23;20164;-80
2023/05/07 08:49:20;;;;;;;3.28;2.83;;;;;;;23.45;43.38;95552.03;6128565;23;20182;-81
2023/05/07 08:51:45;;;;;;;4.32;2.40;;;;;;;23.88;41.96;95556.25;6132131;23;20164;-81
2023/05/07 08:54:11;;;;;;;2.30;2.10;;;;;;;23.76;42.90;95558.06;6104866;23;20171;-82
2023/05/07 08:56:36;;;;;;;3.00;2.70;;;;;;;22.87;43.81;95559.78;6128292;23;20716;-83
2023/05/07 08:59:20;;;;;;;2.92;2.63;;;;;;;23.61;43.91;95557.72;6125642;23;20198;-86
2023/05/07 09:01:48;;;;;;;2.47;2.28;;;;;;;23.73;44.44;95559.34;6122252;23;20163;-84
2023/05/07 09:04:20;;;;;;;5.40;2.05;;;;;;;23.97;44.03;95554.06;6073114;23;21001;-83
2023/05/07 09:09:37;;;;;;;4.05;2.53;;;;;;;23.84;43.62;95549.78;6153134;23;20171;-85
2023/05/07 09:23:34;;;;;;;;;;;;;;;;;;;;;
2023/05/07 09:41:11;;;;;;;3.22;2.60;;;;;;;21.83;49.79;95550.13;6145558;23;20218;-80
2023/05/07 09:43:37;;;;;;;5.95;2.85;;;;;;;21.34;50.55;95554.34;6158087;23;20539;-83
2023/05/07 09:46:08;;;;;;;2.67;2.40;;;;;;;21.45;50.75;95548.38;6157789;23;20201;-82
2023/05/07 09:48:41;;;;;;;5.25;2.67;;;;;;;21.30;51.44;95559.28;6160100;23;20147;-84
2023/05/07 09:51:18;;;;;;;2.92;2.60;;;;;;;21.31;50.74;95557.44;6191143;23;20596;-83
2023/05/07 09:53:46;;;;;;;3.45;2.45;;;;;;;21.32;50.61;95551.13;6168045;23;20773;-83
2023/05/07 09:56:41;;;;;;;3.10;2.55;;;;;;;21.02;51.56;95556.97;6165652;23;20253;-83
2023/05/07 09:59:16;;;;;;;4.82;3.15;;;;;;;21.07;51.90;95548.41;6186913;23;20182;-83
2023/05/07 10:01:43;;;;;;;2.70;2.50;;;;;;;21.16;52.51;95544.50;6191279;23;20165;-83
2023/05/07 10:04:12;;;;;;;3.10;2.60;;;;;;;21.14;52.81;95544.72;6167370;23;20158;-82
2023/05/07 10:06:49;;;;;;;3.22;2.92;;;;;;;20.98;52.39;95539.94;6164509;23;20173;-84
2023/05/07 10:09:50;;;;;;;3.60;2.50;;;;;;;20.98;52.83;95545.22;6213800;23;20189;-84
2023/05/07 13:46:02;;;;;;;7.45;5.38;;;;;;;17.47;78.71;95625.31;6185905;23;20208;-88
2023/05/07 13:49:09;;;;;;;3.35;3.05;;;;;;;17.36;80.08;95631.06;6141081;23;20639;-84
2023/05/07 13:52:35;;;;;;;6.80;3.05;;;;;;;17.04;82.13;95620.03;6107570;23;20240;-85
2023/05/07 13:55:26;;;;;;;3.10;2.30;;;;;;;16.58;85.11;95611.63;6010342;23;20206;-85
2023/05/07 13:58:20;;;;;;;4.28;2.40;;;;;;;16.81;83.78;95606.28;5962766;23;20190;-87
2023/05/07 14:00:48;;;;;;;5.97;2.58;;;;;;;16.45;86.01;95608.84;6009625;23;20195;-87
2023/05/07 14:03:13;;;;;;;3.95;2.20;;;;;;;16.33;86.85;95608.47;6009488;23;20170;-85
2023/05/07 14:05:39;;;;;;;3.75;2.22;;;;;;;16.13;86.87;95606.41;6009029;23;20211;-83
2023/05/07 14:08:10;;;;;;;3.28;1.88;;;;;;;15.83;90.97;95607.38;6008248;23;20189;-82
2023/05/07 14:10:36;;;;;;;3.35;2.13;;;;;;;16.01;87.96;95597.38;5984498;23;20174;-84
2023/05/07 14:13:03;;;;;;;4.93;2.60;;;;;;;15.99;89.29;95598.53;6008310;23;20163;-84
2023/05/07 14:15:29;;;;;;;2.00;1.90;;;;;;;16.13;86.99;95592.50;5984929;23;20248;-83
2023/05/07 14:17:55;;;;;;;3.58;2.25;;;;;;;16.08;86.80;95595.66;5961026;23;20163;-85
2023/05/07 14:20:20;;;;;;;4.20;2.10;;;;;;;16.06;87.34;95587.16;5984241;23;20956;-85
2023/05/07 14:22:45;;;;;;;2.90;2.10;;;;;;;16.35;86.61;95599.44;5984990;23;20175;-84
2023/05/07 14:25:11;;;;;;;3.55;2.47;;;;;;;16.56;86.99;95593.47;6006299;23;20190;-82
2023/05/07 14:27:39;;;;;;;3.63;2.30;;;;;;;16.81;86.02;95593.16;5983507;23;20166;-84
2023/05/07 14:30:05;;;;;;;4.80;2.13;;;;;;;16.94;85.58;95586.25;6016301;23;20607;-84
2023/05/07 14:32:34;;;;;;;2.33;2.03;;;;;;;17.08;83.25;95583.78;6153828;23;20263;-84
2023/05/07 14:35:11;;;;;;;1.92;1.83;;;;;;;17.15;82.44;95587.28;6153956;23;20657;-84
2023/05/07 14:37:40;;;;;;;2.88;2.08;;;;;;;17.25;81.08;95585.97;6152415;23;20770;-84
2023/05/07 14:40:09;;;;;;;3.15;2.63;;;;;;;17.14;80.90;95583.84;6129103;23;20242;-82
2023/05/07 14:42:34;;;;;;;2.45;1.80;;;;;;;17.37;80.27;95594.13;6153570;23;20668;-84
2023/05/07 14:45:02;;;;;;;2.50;2.20;;;;;;;17.26;80.50;95603.31;6129434;23;20269;-83
2023/05/07 14:47:27;;;;;;;2.85;2.22;;;;;;;17.38;80.93;95602.81;6154103;23;20150;-83
2023/05/07 14:49:53;;;;;;;2.75;2.33;;;;;;;17.09;81.14;95603.75;6129868;23;20700;-84
2023/05/07 14:52:18;;;;;;;3.22;2.15;;;;;;;17.07;80.47;95605.75;6155082;23;20156;-85
2023/05/07 14:54:44;;;;;;;2.58;2.30;;;;;;;16.88;82.09;95599.31;6129225;23;20613;-85
2023/05/07 14:57:13;;;;;;;3.30;2.17;;;;;;;17.23;81.64;95595.84;6128448;23;20508;-85
2023/05/07 14:59:38;;;;;;;4.32;2.25;;;;;;;17.15;81.89;95595.97;6129589;23;20210;-84
2023/05/07 15:02:07;;;;;;;4.75;2.92;;;;;;;17.03;82.75;95594.81;6129799;23;20155;-84
2023/05/07 15:04:33;;;;;;;4.03;2.30;;;;;;;16.94;83.19;95601.16;6155524;23;20175;-83
2023/05/07 15:06:59;;;;;;;3.35;2.30;;;;;;;16.41;85.74;95597.91;6127941;23;20160;-85
2023/05/07 15:09:24;;;;;;;3.05;2.03;;;;;;;16.36;87.62;95600.25;6129204;23;20174;-84
2023/05/07 15:11:49;;;;;;;2.42;2.22;;;;;;;16.84;86.03;95592.78;6153851;23;20606;-84
2023/05/07 15:14:15;;;;;;;5.18;2.33;;;;;;;16.88;86.63;95592.25;6129428;23;20169;-85
2023/05/07 15:16:40;;;;;;;5.43;2.72;;;;;;;17.08;84.07;95597.69;6128125;23;20159;-84
2023/05/07 15:19:05;;;;;;;4.10;2.40;;;;;;;17.36;83.95;95599.56;6153954;23;20218;-85
2023/05/07 15:21:34;;;;;;;2.63;2.10;;;;;;;17.19;82.36;95594.56;6128882;23;20166;-79
2023/05/07 15:23:59;;;;;;;4.25;2.08;;;;;;;17.02;84.18;95598.44;6156290;23;20147;-80
2023/05/07 15:26:25;;;;;;;2.70;2.20;;;;;;;17.02;83.35;95608.13;6131884;23;20152;-83
2023/05/07 15:28:50;;;;;;;2.25;1.98;;;;;;;16.94;83.74;95609.03;6133874;23;20221;-83
2023/05/07 15:31:16;;;;;;;2.80;2.20;;;;;;;16.96;83.16;95613.13;6109827;23;20166;-82
2023/05/07 15:33:44;;;;;;;3.25;1.98;;;;;;;16.93;83.67;95621.34;6160910;23;20156;-84
2023/05/07 15:36:10;;;;;;;4.05;1.75;;;;;;;16.90;84.64;95616.47;6131461;23;20167;-84
2023/05/07 15:38:36;;;;;;;2.13;1.92;;;;;;;16.75;84.83;95628.00;6160019;23;20167;-84
2023/05/07 15:41:45;;;;;;;2.67;1.92;;;;;;;16.98;85.71;95624.25;6159703;23;20159;-86
2023/05/07 15:44:11;;;;;;;2.53;2.33;;;;;;;16.87;85.91;95624.72;6064214;23;20605;-83
2023/05/07 15:46:36;;;;;;;3.25;2.13;;;;;;;16.80;84.42;95623.03;6041116;23;20169;-84
2023/05/07 15:49:23;;;;;;;3.10;2.35;;;;;;;16.92;83.68;95624.16;6066624;23;20564;-84
2023/05/07 15:52:13;;;;;;;3.70;2.10;;;;;;;16.78;83.75;95623.19;6044884;23;20161;-85
2023/05/07 15:55:26;;;;;;;2.42;2.22;;;;;;;17.09;82.35;95622.13;5991377;23;20927;-85
2023/05/07 15:57:51;;;;;;;3.58;2.45;;;;;;;17.01;82.32;95619.63;5926419;24;20161;-85
2023/05/07 16:57:38;;;;;;;4.30;2.50;;;;;;;17.11;78.35;95655.03;6188071;23;20202;-85
2023/05/07 17:01:20;;;;;;;;;;;;;;;;;;;;;
2023/05/07 17:11:32;;;;;;;2.83;2.50;;;;;;;16.99;78.45;95667.03;6066845;23;20667;-84
2023/05/07 17:18:13;;;;;;;3.60;2.78;;;;;;;16.92;79.08;95669.56;6067911;23;20157;-85
2023/05/07 17:21:41;;;;;;;;;;;;;;;;;;;;;
2023/05/07 17:25:10;;;;;;;;;;;;;;;;;;;;;
2023/05/07 17:32:13;;;;;;;4.50;3.30;;;;;;;15.93;88.53;95694.34;5984661;24;20170;-86
2023/05/07 17:35:41;;;;;;;;;;;;;;;;;;;;;
2023/05/07 17:41:11;;;;;;;5.45;4.90;;;;;;;15.94;99.20;95701.22;6177189;23;20245;-83
2023/05/07 17:50:47;;;;;;;5.28;4.80;;;;;;;15.97;100.00;95713.94;6061826;23;20196;-82
2023/05/07 17:53:12;;;;;;;4.78;4.38;;;;;;;16.03;99.96;95715.06;6063279;23;20158;-83
2023/05/07 17:55:44;;;;;;;5.40;4.25;;;;;;;16.06;99.34;95717.31;6039590;23;20541;-83
2023/05/07 17:58:10;;;;;;;5.28;4.10;;;;;;;15.99;100.00;95721.63;6037921;23;20630;-82
2023/05/07 18:00:36;;;;;;;4.13;3.80;;;;;;;16.01;99.14;95722.28;6038070;23;20241;-84
2023/05/07 18:03:02;;;;;;;5.40;4.57;;;;;;;16.02;99.41;95727.34;6063408;23;20536;-83
2023/05/07 18:05:28;;;;;;;5.63;5.15;;;;;;;16.02;99.66;95734.38;6063671;23;20596;-84
2023/05/07 19:13:05;;;;;;;7.55;6.07;;;;;;;15.11;91.87;95758.66;6122540;23;20191;-82
2023/05/07 19:25:47;;;;;;;4.35;2.97;;;;;;;14.82;95.04;95780.16;6061825;23;20653;-86
2023/05/07 19:28:29;;;;;;;5.23;3.67;;;;;;;14.67;97.07;95780.06;6062384;23;20177;-87
2023/05/07 19:31:05;;;;;;;4.55;3.53;;;;;;;14.81;96.51;95789.78;6033766;23;20204;-86
2023/05/07 19:33:59;;;;;;;3.90;3.50;;;;;;;14.90;95.54;95788.78;6034742;23;20161;-86
2023/05/07 19:37:05;;;;;;;4.03;3.50;;;;;;;14.93;95.25;95788.47;6057588;23;20161;-86
2023/05/07 19:39:31;;;;;;;5.18;3.78;;;;;;;14.84;96.60;95792.09;6035327;23;20199;-85
2023/05/07 19:41:59;;;;;;;5.38;4.78;;;;;;;14.70;98.19;95792.78;6010971;23;20275;-86
2023/05/07 19:44:35;;;;;;;5.68;4.82;;;;;;;14.70;98.59;95803.22;6033614;23;20169;-85
2023/05/07 19:47:04;;;;;;;5.72;4.55;;;;;;;14.70;97.89;95801.44;6034279;23;20168;-86
2023/05/07 19:49:32;;;;;;;4.50;4.05;;;;;;;14.85;97.31;95806.78;6034269;23;20189;-85
2023/05/07 19:52:06;;;;;;;3.60;3.30;;;;;;;14.82;97.03;95811.53;6033189;23;20183;-86
2023/05/07 19:57:39;;;;;;;4.63;3.83;;;;;;;14.73;97.63;95816.78;6038557;23;20152;-86
2023/05/07 20:05:00;;;;;;;;;;;;;;;;;;;;;
2023/05/07 20:07:37;;;;;;;4.27;3.50;;;;;;;14.67;98.25;95819.25;6087661;23;20160;-85
2023/05/07 20:10:25;;;;;;;4.47;4.07;;;;;;;14.68;98.03;95815.66;6051153;23;20251;-84
2023/05/07 20:13:16;;;;;;;4.40;4.00;;;;;;;14.62;99.18;95824.97;6038201;23;20169;-84
2023/05/07 20:16:07;;;;;;;3.92;3.63;;;;;;;14.63;99.34;95817.94;6037100;23;20635;-86
2023/05/07 20:19:00;;;;;;;6.07;4.10;;;;;;;14.72;99.15;95827.41;6061989;23;20655;-86
2023/05/07 20:22:18;;;;;;;4.17;3.73;;;;;;;14.73;98.85;95834.25;6062204;23;20165;-87
2023/05/07 20:24:48;;;;;;;6.37;3.97;;;;;;;14.62;98.75;95829.38;6043205;23;20165;-85
2023/05/07 20:27:34;;;;;;;4.20;3.80;;;;;;;14.63;98.83;95833.63;6067286;23;20156;-86
2023/05/07 20:30:31;;;;;;;4.43;4.03;;;;;;;14.64;98.92;95835.25;6091812;23;20279;-86
2023/05/07 20:37:18;;;;;;;4.60;4.20;;;;;;;14.69;99.24;95840.81;6080127;23;20176;-86
2023/05/07 20:40:32;;;;;;;5.80;4.30;;;;;;;14.66;98.98;95841.94;6098151;23;20247;-87
2023/05/07 20:43:41;;;;;;;5.23;4.10;;;;;;;14.61;99.43;95843.44;6098318;23;20179;-87
2023/05/07 20:46:35;;;;;;;;;;;;;;;;;;;;;
2023/05/07 20:49:14;;;;;;;4.90;4.47;;;;;;;14.51;100.00;95846.22;5976860;24;21091;-85
2023/05/07 20:51:39;;;;;;;5.43;4.93;;;;;;;14.39;100.00;95848.28;5975008;23;20191;-84
2023/05/07 20:54:07;;;;;;;6.90;4.60;;;;;;;14.30;100.00;95854.50;5961283;24;20170;-84
2023/05/07 20:56:32;;;;;;;5.73;4.60;;;;;;;14.24;100.00;95856.97;5985382;24;20249;-84
2023/05/07 20:58:58;;;;;;;5.77;4.77;;;;;;;14.31;100.00;95853.53;5986372;24;20183;-84
2023/05/07 21:01:23;;;;;;;5.10;4.67;;;;;;;14.45;100.00;95862.53;5983249;24;20175;-84
2023/05/07 21:03:49;;;;;;;5.17;4.50;;;;;;;14.39;100.00;95863.16;6000379;23;20525;-84
2023/05/07 21:06:14;;;;;;;5.47;4.60;;;;;;;14.36;100.00;95864.31;6017895;23;20166;-85
2023/05/07 21:08:39;;;;;;;4.43;4.03;;;;;;;14.55;100.00;95860.56;6018794;23;20170;-84
2023/05/07 21:11:05;;;;;;;4.97;4.17;;;;;;;14.60;100.00;95866.13;6019539;23;20290;-86
2023/05/07 21:13:30;;;;;;;4.97;4.57;;;;;;;14.59;100.00;95861.91;6042701;23;20180;-86
2023/05/07 21:15:55;;;;;;;5.30;4.80;;;;;;;14.61;100.00;95861.72;6018161;23;20161;-85
2023/05/07 21:18:21;;;;;;;7.13;4.50;;;;;;;14.60;100.00;95873.16;6018558;23;20198;-84
2023/05/07 21:20:46;;;;;;;5.20;4.80;;;;;;;14.59;100.00;95863.69;6039908;23;20190;-85
2023/05/07 21:23:11;;;;;;;6.40;5.70;;;;;;;14.50;100.00;95869.91;6085287;23;20167;-85
2023/05/07 21:25:40;;;;;;;5.77;5.17;;;;;;;14.48;100.00;95861.38;6159770;23;20163;-84
2023/05/07 21:28:08;;;;;;;5.53;5.03;;;;;;;14.48;100.00;95866.63;6161177;23;20271;-83
2023/05/07 21:30:34;;;;;;;5.20;4.80;;;;;;;14.54;100.00;95858.94;6153209;23;20655;-84
2023/05/07 21:32:59;;;;;;;5.50;5.00;;;;;;;14.53;100.00;95869.56;6195137;23;20201;-82
2023/05/07 21:35:24;;;;;;;5.40;4.90;;;;;;;14.52;100.00;95867.94;6191179;23;20161;-84
2023/05/07 21:37:50;;;;;;;6.03;5.27;;;;;;;14.45;100.00;95867.78;6165300;23;20161;-83
2023/05/07 21:40:15;;;;;;;6.80;5.23;;;;;;;14.44;100.00;95866.94;6167732;23;20248;-85
2023/05/07 21:42:40;;;;;;;5.37;4.87;;;;;;;14.54;100.00;95869.41;6166190;23;20299;-81
2023/05/07 21:45:06;;;;;;;5.93;4.87;;;;;;;14.51;100.00;95872.34;6191421;23;20162;-84
2023/05/07 21:47:31;;;;;;;6.47;5.50;;;;;;;14.54;100.00;95865.97;6164574;23;20150;-84